Chino Airport

Current Flights

Departures
Number Departure To Airline
Arrivals
Info
Name: Chino Airport
Identifier:  CNO/KCNO
Local Time:  20. Jun 00:10
Flights per Day
4 flights
Distance: 635km (394mi)
Punctuality
76% (1 flights per day delayed)
Delay Average: 4 minutes
Current Weather
 17 C (Humidity: 93%)
  6kt (11km/h / 6mph) from 280°
  14km (9 mi.)
 
 METAR KCNO 200653Z AUTO 28006KT 9SM CLR 17/16 A2999 RMK AO2 SLP152 T01720161

Current Delays

Departures
N/A
Arrivals
N/A

Destinations

Top Destinations
Airport Flights
per week
Seats
per week
  Phoenix (PHX) 3 385 0 55
  Orange County (SNA) 3 - 0 0
  Long Beach (LGB) 2 - 0 0
  Riverside (RAL) 1 - 0 0
  Oakland (OAK) 1 200 0 28
  San Diego (MYF) 1 - 0 0
  Mammoth Lakes (MMH) 1 - 0 0
  San Jose (SJC) 1 166 0 23
  Phoenix (DVT) 1 - 0 0
  Dallas (DFW) 1 143 0 20
  Las Vegas (HSH) 1 - 0 0

Airlines & Planes

Top Airlines
Airline Flights
per Day
Seats
per Day
Nordwind Airlines 1 -
  Nolinor Aviation 1 -
  Southwest Airlines 1 146
Jet Charter Inc ( Franklin Lakes Nj ) 1 -
  National Airlines 0 6
  Flybe Nordic 0 -
  Novair 0 -
  American Airlines 0 28
  United Airlines 0 25
  Air Transport International 0 0
Top Plane Types
Model Flights Seats
Boeing B737-700 1.0/day 142/day 142
Cessna C172 0.8/day - 0
Boeing B767-300 0.2/day 8/day 8.533333333333333
Cessna C182 0.2/day - 0
Airbus A320 0.2/day 25/day 25
Boeing B737-800 0.2/day 25/day 25.966666666666665
Bombardier CRJ900 0.2/day 13/day 13.666666666666666